Time;durP1;ratioP1;P1;durP2;ratioP2;P2;SDS_P1;SDS_P2;PMS_P1;PMS_P2;Temp;Humidity;BMP_temperature;BMP_pressure;BME280_temperature;BME280_humidity;BME280_pressure;Samples;Min_cycle;Max_cycle;Signal;HPM_P1;HPM_P2
2021/12/28 00:03:37;;;;;;;6.93;4.10;;;;;;;5.55;88.11;95015.56;10244327;28;1422915;-73
2021/12/28 00:08:41;;;;;;;6.03;3.70;;;;;;;5.54;87.99;95001.78;10276969;28;96728;-73
2021/12/28 00:13:45;;;;;;;7.82;3.92;;;;;;;5.55;88.00;94977.53;10295884;28;96770;-73
2021/12/28 00:18:49;;;;;;;5.75;2.97;;;;;;;5.53;87.86;94976.84;10295883;28;96899;-73
2021/12/28 00:23:52;;;;;;;6.55;2.97;;;;;;;5.52;88.16;94988.19;10293332;28;96721;-73
2021/12/28 00:28:55;;;;;;;5.97;3.50;;;;;;;5.48;88.23;94985.06;10297803;28;97255;-73
2021/12/28 00:33:59;;;;;;;5.00;2.92;;;;;;;5.46;88.28;94975.81;10293831;28;96858;-73
2021/12/28 00:39:02;;;;;;;5.43;3.60;;;;;;;5.46;88.25;94962.84;10291338;28;97032;-73
2021/12/28 00:44:05;;;;;;;6.75;3.85;;;;;;;5.44;88.23;94964.78;10297351;28;96924;-73
2021/12/28 00:49:09;;;;;;;6.78;3.72;;;;;;;5.43;88.35;94947.63;10294619;28;98341;-73
2021/12/28 00:54:12;;;;;;;5.30;3.38;;;;;;;5.45;88.36;94935.34;10291318;28;96852;-73
2021/12/28 00:59:15;;;;;;;4.55;3.55;;;;;;;5.45;88.19;94937.94;10296650;28;96701;-73
2021/12/28 01:04:20;;;;;;;5.60;3.30;;;;;;;5.45;87.81;94930.16;10293881;28;96687;-73
2021/12/28 01:09:30;;;;;;;4.80;3.40;;;;;;;5.43;88.06;94921.72;10292233;28;96889;-73
2021/12/28 01:14:33;;;;;;;8.23;3.70;;;;;;;5.37;88.02;94917.13;10293681;28;96947;-73
2021/12/28 01:19:38;;;;;;;7.38;3.78;;;;;;;5.33;88.06;94911.44;10293883;28;97116;-73
2021/12/28 01:24:41;;;;;;;5.05;3.25;;;;;;;5.31;88.09;94916.75;10293563;28;97053;-73
2021/12/28 01:29:43;;;;;;;7.28;4.63;;;;;;;5.33;88.16;94907.06;10291471;28;96899;-73
2021/12/28 01:34:48;;;;;;;5.75;3.30;;;;;;;5.37;88.13;94909.34;10293069;28;97715;-73
2021/12/28 01:39:50;;;;;;;5.35;3.22;;;;;;;5.42;87.75;94910.53;10292845;28;96914;-73
2021/12/28 01:44:53;;;;;;;9.18;3.63;;;;;;;5.39;87.92;94910.03;10291134;28;96705;-73
2021/12/28 01:49:57;;;;;;;5.60;3.35;;;;;;;5.36;88.00;94918.09;10294666;28;96667;-73
2021/12/28 01:55:00;;;;;;;7.75;3.47;;;;;;;5.33;88.08;94927.78;10292844;28;97156;-73
2021/12/28 02:00:05;;;;;;;6.45;3.15;;;;;;;5.33;87.99;94937.34;10289253;28;96868;-72
2021/12/28 02:05:09;;;;;;;5.77;2.63;;;;;;;5.28;88.24;94955.88;10287476;28;96922;-73
2021/12/28 02:10:12;;;;;;;4.90;3.10;;;;;;;5.23;88.97;94952.13;10293612;28;98790;-73
2021/12/28 02:15:15;;;;;;;4.90;2.97;;;;;;;5.26;88.80;94931.13;10288838;28;96744;-73
2021/12/28 02:20:21;;;;;;;5.55;3.30;;;;;;;5.21;88.95;94928.97;10294209;28;96715;-73
2021/12/28 02:25:24;;;;;;;5.97;3.30;;;;;;;5.16;88.99;94941.53;10291246;28;96880;-73
2021/12/28 02:30:27;;;;;;;6.38;3.47;;;;;;;5.17;88.94;94948.34;10290496;28;96905;-73
2021/12/28 02:35:31;;;;;;;7.88;4.35;;;;;;;5.16;88.90;94946.72;10292311;28;96874;-73
2021/12/28 02:40:36;;;;;;;6.07;3.47;;;;;;;5.22;88.66;94968.59;10291629;28;98003;-72
2021/12/28 02:45:41;;;;;;;5.57;3.30;;;;;;;5.25;88.67;94956.19;10291531;28;96654;-73
2021/12/28 02:50:48;;;;;;;;;;;;;;;5.26;88.66;94939.69;10274586;28;100026;-72
2021/12/28 02:55:52;;;;;;;5.30;2.53;;;;;;;5.31;88.15;94950.41;10295877;28;97035;-73
2021/12/28 03:00:59;;;;;;;4.53;2.60;;;;;;;5.29;88.49;94947.16;10300184;28;96728;-73
2021/12/28 03:06:06;;;;;;;4.10;2.60;;;;;;;5.30;88.71;94947.97;10294512;28;96767;-73
2021/12/28 03:11:10;;;;;;;4.30;2.60;;;;;;;5.30;88.68;94933.25;10301351;28;97316;-72
2021/12/28 03:16:14;;;;;;;4.18;2.47;;;;;;;5.33;88.85;94930.38;10296676;28;99712;-73
2021/12/28 03:21:21;;;;;;;2.50;1.90;;;;;;;5.33;88.91;94938.13;10294666;28;96773;-72
2021/12/28 03:26:25;;;;;;;3.72;1.70;;;;;;;5.36;88.86;94942.22;10298436;28;96885;-73
2021/12/28 03:31:28;;;;;;;2.70;0.90;;;;;;;5.35;88.95;94953.53;10296882;28;96989;-73
2021/12/28 03:36:34;;;;;;;1.88;1.02;;;;;;;5.31;89.07;94923.72;10295666;28;96881;-73
2021/12/28 03:41:37;;;;;;;0.98;0.50;;;;;;;5.31;89.29;94939.25;10296256;28;97168;-72
2021/12/28 03:46:39;;;;;;;0.80;0.60;;;;;;;5.29;89.10;94947.16;10295612;28;96842;-73
2021/12/28 03:51:44;;;;;;;0.77;0.55;;;;;;;5.23;89.27;94952.13;10297440;28;96875;-73
2021/12/28 03:56:47;;;;;;;0.52;0.43;;;;;;;5.21;89.66;94938.50;10294559;28;96994;-73
2021/12/28 04:01:50;;;;;;;1.48;0.70;;;;;;;5.20;89.43;94940.28;10297074;28;96887;-73
2021/12/28 04:06:54;;;;;;;1.67;0.80;;;;;;;5.17;89.85;94943.16;10293947;28;96750;-72
2021/12/28 04:11:57;;;;;;;1.13;0.63;;;;;;;5.18;89.70;94941.38;10292810;28;96867;-72
2021/12/28 04:17:00;;;;;;;2.60;0.88;;;;;;;5.20;89.89;94937.69;10298339;28;96993;-72
2021/12/28 04:22:05;;;;;;;1.80;0.75;;;;;;;5.20;89.81;94935.13;10295625;28;96827;-72
2021/12/28 04:27:08;;;;;;;1.77;0.93;;;;;;;5.23;89.96;94921.84;10291023;28;96932;-72
2021/12/28 04:32:11;;;;;;;1.45;0.77;;;;;;;5.30;89.42;94930.66;10298583;28;96790;-72
2021/12/28 04:37:15;;;;;;;1.17;0.93;;;;;;;5.31;89.47;94955.59;10295178;28;96693;-72
2021/12/28 04:42:18;;;;;;;2.85;0.70;;;;;;;5.38;89.43;94970.56;10293062;28;96716;-73
2021/12/28 04:47:21;;;;;;;2.25;0.80;;;;;;;5.41;89.40;94967.66;10296833;28;96910;-72
2021/12/28 04:52:25;;;;;;;1.55;1.02;;;;;;;5.42;89.58;94980.47;10294526;28;100005;-72
2021/12/28 04:57:28;;;;;;;1.60;0.95;;;;;;;5.43;89.55;94973.53;10292080;28;97068;-72
2021/12/28 05:02:31;;;;;;;2.00;0.75;;;;;;;5.45;89.53;94974.19;10294670;28;97468;-72
2021/12/28 05:07:35;;;;;;;2.10;0.68;;;;;;;5.46;89.77;94975.81;10294331;28;96801;-73
2021/12/28 05:12:39;;;;;;;0.93;0.63;;;;;;;5.39;89.97;94982.53;10293513;28;97000;-72
2021/12/28 05:17:42;;;;;;;2.00;0.88;;;;;;;5.38;90.17;94973.97;10276033;28;96990;-72
2021/12/28 05:22:46;;;;;;;1.15;0.80;;;;;;;5.45;90.06;94962.03;10294302;28;97090;-72
2021/12/28 05:27:49;;;;;;;1.25;0.88;;;;;;;5.51;89.77;94939.91;10293302;28;97027;-73
2021/12/28 05:32:51;;;;;;;1.63;0.90;;;;;;;5.52;89.97;94949.31;10292450;28;98543;-73
2021/12/28 05:37:56;;;;;;;1.27;0.88;;;;;;;5.51;90.00;94945.94;10294974;28;96821;-73
2021/12/28 05:42:58;;;;;;;2.08;1.20;;;;;;;5.53;90.03;94953.53;10293237;28;97198;-73
2021/12/28 05:48:02;;;;;;;2.05;0.90;;;;;;;5.59;90.08;94959.91;10289043;28;96862;-72
2021/12/28 05:53:06;;;;;;;0.90;0.60;;;;;;;5.58;90.04;94966.84;10296104;28;96874;-73
2021/12/28 05:58:09;;;;;;;0.57;0.52;;;;;;;5.63;89.95;94979.38;10292751;28;96991;-73
2021/12/28 06:03:12;;;;;;;0.85;0.70;;;;;;;5.68;90.52;94967.59;10289166;28;96853;-72
2021/12/28 06:08:16;;;;;;;1.70;0.70;;;;;;;5.69;89.93;94979.59;10294397;28;96706;-73
2021/12/28 06:13:33;;;;;;;1.83;0.88;;;;;;;5.72;90.06;94974.13;10292701;28;96796;-73
2021/12/28 06:18:36;;;;;;;1.77;0.73;;;;;;;5.74;90.33;94986.09;10292129;28;97047;-73
2021/12/28 06:23:41;;;;;;;0.88;0.47;;;;;;;5.75;90.13;94977.38;10274404;28;96832;-73
2021/12/28 06:28:43;;;;;;;2.43;0.60;;;;;;;5.77;90.13;94975.44;10292869;28;96877;-73
2021/12/28 06:33:46;;;;;;;0.80;0.60;;;;;;;5.86;90.30;94971.94;10299362;28;96888;-73
2021/12/28 06:38:51;;;;;;;2.13;0.73;;;;;;;5.81;90.14;94987.13;10295806;28;96906;-73
2021/12/28 06:43:53;;;;;;;0.60;0.40;;;;;;;5.78;90.48;94992.63;10300376;28;96761;-72
2021/12/28 06:48:56;;;;;;;1.05;0.80;;;;;;;5.81;90.67;94980.19;10299135;28;96742;-72
2021/12/28 06:54:01;;;;;;;1.50;0.60;;;;;;;5.85;90.49;94988.47;10295301;28;97069;-73
2021/12/28 06:59:04;;;;;;;1.27;0.80;;;;;;;5.89;90.26;94989.78;10301400;28;96864;-73
2021/12/28 07:04:07;;;;;;;1.20;0.68;;;;;;;5.86;90.76;94990.09;10298462;28;100079;-73
2021/12/28 07:09:12;;;;;;;0.85;0.60;;;;;;;5.85;90.70;95006.63;10293691;28;96862;-73
2021/12/28 07:14:15;;;;;;;0.57;0.50;;;;;;;5.85;90.75;95006.63;10300879;28;96749;-73
2021/12/28 07:19:17;;;;;;;0.93;0.70;;;;;;;5.96;90.62;95021.91;10297823;28;96679;-73
2021/12/28 07:24:22;;;;;;;1.27;0.85;;;;;;;5.99;90.43;95019.03;10295356;28;97389;-73
2021/12/28 07:29:25;;;;;;;0.88;0.60;;;;;;;6.04;90.30;95023.78;10297063;28;96869;-72
2021/12/28 07:34:28;;;;;;;1.52;0.75;;;;;;;6.06;90.62;95022.66;10297280;28;96874;-73
2021/12/28 07:39:32;;;;;;;0.50;0.43;;;;;;;6.10;90.67;95023.16;10295788;28;96720;-73
2021/12/28 07:44:36;;;;;;;1.10;0.53;;;;;;;6.11;90.83;95026.59;10296652;28;97231;-73
2021/12/28 07:49:39;;;;;;;0.52;0.40;;;;;;;6.12;90.83;95025.63;10295622;28;96782;-73
2021/12/28 07:54:43;;;;;;;0.70;0.55;;;;;;;6.12;90.78;95036.00;10297166;28;96875;-73
2021/12/28 07:59:47;;;;;;;1.15;0.60;;;;;;;6.13;91.42;95037.63;10294519;28;96838;-73
2021/12/28 08:04:49;;;;;;;0.88;0.50;;;;;;;6.20;91.11;95052.44;10298065;28;96900;-73
2021/12/28 08:09:54;;;;;;;0.90;0.50;;;;;;;6.21;91.00;95055.84;10296247;28;98853;-73
2021/12/28 08:14:59;;;;;;;0.60;0.60;;;;;;;6.27;91.17;95065.63;10293101;28;96668;-73
2021/12/28 08:20:02;;;;;;;0.73;0.50;;;;;;;6.33;91.18;95072.81;10297362;28;97046;-73
2021/12/28 08:25:09;;;;;;;0.82;0.63;;;;;;;6.33;91.05;95078.00;10295673;28;96823;-73
2021/12/28 08:30:13;;;;;;;1.10;0.60;;;;;;;6.36;91.24;95079.47;10292138;28;96809;-73
2021/12/28 08:35:17;;;;;;;1.65;0.80;;;;;;;6.35;91.04;95091.63;10296893;28;96743;-73
2021/12/28 08:40:23;;;;;;;0.98;0.55;;;;;;;6.40;91.36;95085.97;10294562;28;96673;-73
2021/12/28 08:45:26;;;;;;;;;;;;;;;6.49;91.19;95105.03;10293565;28;97694;-73
2021/12/28 08:50:29;;;;;;;1.25;0.60;;;;;;;6.52;91.29;95104.72;10295634;28;96966;-73
2021/12/28 08:55:33;;;;;;;2.25;0.50;;;;;;;6.58;91.22;95114.50;10294771;28;96787;-73
2021/12/28 09:00:38;;;;;;;0.93;0.68;;;;;;;6.65;91.10;95120.72;10294227;28;96769;-73
2021/12/28 09:05:42;;;;;;;0.65;0.50;;;;;;;6.73;91.06;95122.53;10275849;28;96847;-73
2021/12/28 09:10:46;;;;;;;1.70;0.70;;;;;;;6.83;90.71;95150.06;10293359;28;96807;-72
2021/12/28 09:15:49;;;;;;;3.43;0.93;;;;;;;6.86;90.52;95151.53;10294150;28;96959;-73
2021/12/28 09:20:52;;;;;;;0.95;0.70;;;;;;;6.93;91.02;95154.31;10292091;28;96957;-73
2021/12/28 09:25:56;;;;;;;1.23;0.88;;;;;;;6.94;91.11;95161.16;10295955;28;96774;-73
2021/12/28 09:30:59;;;;;;;1.35;0.80;;;;;;;6.99;91.34;95164.16;10293469;28;96684;-73
2021/12/28 09:36:05;;;;;;;0.95;0.73;;;;;;;6.98;91.01;95162.50;10289933;28;97037;-73
2021/12/28 09:41:09;;;;;;;0.98;0.63;;;;;;;7.03;91.46;95181.03;10288408;28;98762;-73
2021/12/28 09:46:12;;;;;;;1.07;0.70;;;;;;;7.10;91.15;95182.06;10294035;28;98673;-73
2021/12/28 09:51:15;;;;;;;1.30;0.80;;;;;;;7.17;91.25;95180.47;10289712;28;96741;-73
2021/12/28 09:56:21;;;;;;;0.70;0.70;;;;;;;7.30;91.18;95182.69;10294887;28;96711;-73
2021/12/28 10:01:24;;;;;;;0.90;0.70;;;;;;;7.31;91.51;95189.50;10291174;28;96974;-73
2021/12/28 10:06:29;;;;;;;2.33;1.10;;;;;;;7.42;91.60;95183.22;10297363;28;96870;-73
2021/12/28 10:11:35;;;;;;;2.08;0.90;;;;;;;7.51;91.22;95192.72;10300235;28;96689;-73
2021/12/28 10:16:48;;;;;;;1.02;0.85;;;;;;;7.65;91.41;95200.88;10298825;28;96792;-73
2021/12/28 10:21:51;;;;;;;0.88;0.68;;;;;;;7.74;91.36;95197.38;10299082;28;97662;-73
2021/12/28 10:27:14;;;;;;;1.38;0.80;;;;;;;7.87;91.40;95207.31;10297099;28;96841;-73
2021/12/28 10:32:20;;;;;;;1.92;0.85;;;;;;;7.93;90.82;95198.91;10295065;28;96749;-73
2021/12/28 10:37:25;;;;;;;1.17;0.60;;;;;;;7.94;91.09;95209.16;10300056;28;96943;-73
2021/12/28 10:42:39;;;;;;;;;;;;;;;7.98;91.61;95218.25;10297693;28;96921;-73
2021/12/28 10:47:43;;;;;;;1.45;0.70;;;;;;;8.08;91.14;95214.72;10281881;28;96938;-73
2021/12/28 10:52:50;;;;;;;1.77;0.68;;;;;;;8.07;91.30;95218.31;10298337;28;96867;-73
2021/12/28 10:57:55;;;;;;;1.80;0.90;;;;;;;8.03;91.28;95224.78;10298108;28;97222;-73
2021/12/28 11:03:23;;;;;;;1.97;1.00;;;;;;;8.12;90.94;95218.66;10295218;28;97114;-73
2021/12/28 11:08:29;;;;;;;2.67;1.40;;;;;;;8.12;91.13;95201.25;10295322;28;102420;-73
2021/12/28 11:13:34;;;;;;;1.20;0.77;;;;;;;8.12;91.08;95218.66;10297116;28;96900;-73
2021/12/28 11:18:38;;;;;;;1.25;0.80;;;;;;;8.15;90.47;95228.72;10296449;28;96969;-73
2021/12/28 11:23:42;;;;;;;0.63;0.57;;;;;;;8.20;90.61;95246.47;10280248;28;96648;-73
2021/12/28 11:28:57;;;;;;;1.55;0.80;;;;;;;8.20;90.27;95230.84;10298355;28;96970;-73
2021/12/28 11:34:07;;;;;;;1.38;0.85;;;;;;;8.21;90.34;95254.13;10296980;28;96677;-73
2021/12/28 11:39:13;;;;;;;1.75;1.17;;;;;;;8.24;89.98;95263.38;10292611;28;99714;-73
2021/12/28 11:44:21;;;;;;;1.42;0.90;;;;;;;8.19;89.84;95302.91;10298087;28;96763;-73
2021/12/28 11:49:27;;;;;;;2.83;1.52;;;;;;;8.13;89.98;95261.88;10296938;28;97009;-73
2021/12/28 11:54:35;;;;;;;3.95;1.98;;;;;;;8.19;89.24;95252.63;10295676;28;97215;-73
2021/12/28 11:59:42;;;;;;;3.15;1.30;;;;;;;8.27;89.34;95237.84;10294817;28;96726;-73
2021/12/28 12:04:50;;;;;;;1.50;1.17;;;;;;;8.32;89.51;95204.38;10298349;28;99738;-73
2021/12/28 12:10:34;;;;;;;1.58;1.08;;;;;;;8.41;89.57;95201.78;10296283;28;98744;-73
2021/12/28 12:15:42;;;;;;;0.90;0.70;;;;;;;8.44;89.30;95233.53;10296220;28;96755;-73
2021/12/28 12:20:54;;;;;;;2.63;0.80;;;;;;;8.50;89.12;95227.69;10279505;28;96995;-73
2021/12/28 12:26:00;;;;;;;1.23;0.70;;;;;;;8.63;88.74;95242.03;10297155;28;96938;-73
2021/12/28 12:31:07;;;;;;;2.55;0.90;;;;;;;8.64;88.66;95207.22;10294977;28;96810;-73
2021/12/28 12:36:20;;;;;;;1.00;0.50;;;;;;;8.69;88.82;95230.97;10289710;28;96987;-73
2021/12/28 12:41:35;;;;;;;1.77;0.82;;;;;;;8.72;89.05;95244.50;10296083;28;97051;-73
2021/12/28 12:46:43;;;;;;;4.85;1.40;;;;;;;8.76;88.61;95257.16;10294309;28;96859;-73
2021/12/28 12:51:50;;;;;;;2.28;1.20;;;;;;;8.73;88.09;95235.69;10294373;28;96881;-73
2021/12/28 12:57:22;;;;;;;1.90;0.95;;;;;;;8.71;88.54;95239.44;10292263;28;96693;-74
2021/12/28 13:02:30;;;;;;;1.83;0.82;;;;;;;8.69;88.17;95229.19;10291322;28;99848;-73
2021/12/28 13:07:36;;;;;;;1.00;0.70;;;;;;;8.71;87.94;95231.63;10294438;28;96950;-73
2021/12/28 13:12:41;;;;;;;1.80;0.90;;;;;;;8.69;88.42;95233.56;10294459;28;96993;-74
2021/12/28 13:17:47;;;;;;;1.80;0.77;;;;;;;8.69;87.96;95231.78;10276933;28;96882;-73
2021/12/28 13:22:53;;;;;;;1.45;0.88;;;;;;;8.71;88.00;95229.03;10294991;28;98888;-74
2021/12/28 13:27:56;;;;;;;1.50;0.90;;;;;;;8.68;87.59;95214.53;10292540;28;96792;-74
2021/12/28 13:33:02;;;;;;;1.80;1.00;;;;;;;8.61;88.20;95216.16;10290443;28;96700;-74
2021/12/28 13:38:07;;;;;;;1.67;0.82;;;;;;;8.60;87.50;95232.72;10295807;28;96832;-74
2021/12/28 13:43:13;;;;;;;1.98;0.95;;;;;;;8.61;87.61;95238.78;10293059;28;96889;-74
2021/12/28 13:48:20;;;;;;;2.85;1.08;;;;;;;8.62;87.81;95243.00;10289685;28;96839;-74
2021/12/28 13:53:26;;;;;;;1.58;1.15;;;;;;;8.56;87.61;95244.44;10294275;28;96843;-74
2021/12/28 13:58:31;;;;;;;1.55;1.08;;;;;;;8.51;87.31;95277.94;10293093;28;96969;-74
2021/12/28 14:03:36;;;;;;;1.67;0.90;;;;;;;8.49;87.74;95272.09;10292728;28;96738;-74
2021/12/28 14:08:40;;;;;;;1.30;0.97;;;;;;;8.53;87.50;95271.63;10291123;28;96670;-74
2021/12/28 14:13:45;;;;;;;3.08;1.38;;;;;;;8.56;87.81;95272.28;10293545;28;96876;-74
2021/12/28 14:18:50;;;;;;;;;;;;;;;8.58;87.49;95260.72;10291736;28;97888;-74
2021/12/28 14:24:00;;;;;;;3.10;1.30;;;;;;;8.59;87.00;95264.97;10290280;28;97040;-74
2021/12/28 14:29:06;;;;;;;1.52;1.05;;;;;;;8.54;87.25;95269.84;10295057;28;96823;-74
2021/12/28 14:34:11;;;;;;;2.08;1.00;;;;;;;8.45;87.61;95245.56;10292147;28;96928;-74
2021/12/28 14:39:19;;;;;;;3.00;1.27;;;;;;;8.46;86.90;95230.75;10288303;28;96758;-74
2021/12/28 14:44:29;;;;;;;2.53;1.10;;;;;;;8.39;87.02;95246.19;10293870;28;97112;-74
2021/12/28 14:49:36;;;;;;;2.40;1.08;;;;;;;8.40;87.07;95236.63;10291669;28;96931;-74
2021/12/28 14:54:55;;;;;;;3.17;1.42;;;;;;;8.36;86.98;95207.50;10299233;28;96747;-74
2021/12/28 15:00:01;;;;;;;3.95;1.10;;;;;;;8.29;87.66;95225.53;10280612;28;96705;-74
2021/12/28 15:05:10;;;;;;;3.85;1.55;;;;;;;8.30;86.87;95211.53;10300620;28;96867;-74
2021/12/28 15:10:13;;;;;;;2.33;0.65;;;;;;;8.24;86.87;95216.53;10297245;28;97956;-74
2021/12/28 15:15:17;;;;;;;3.17;1.10;;;;;;;8.19;86.70;95237.84;10294306;28;96824;-74
2021/12/28 15:20:22;;;;;;;1.53;0.87;;;;;;;8.17;86.77;95237.19;10299461;28;96698;-74
2021/12/28 15:25:27;;;;;;;1.60;1.00;;;;;;;8.06;86.62;95258.28;10297636;28;96996;-73
2021/12/28 15:30:33;;;;;;;3.47;1.55;;;;;;;8.00;86.87;95267.53;10295243;28;96961;-73
2021/12/28 15:35:39;;;;;;;1.88;0.90;;;;;;;7.96;86.59;95261.00;10296687;28;96747;-73
2021/12/28 15:40:44;;;;;;;5.28;1.10;;;;;;;7.85;86.89;95282.06;10297390;28;96783;-73
2021/12/28 15:45:47;;;;;;;4.38;0.98;;;;;;;7.76;87.07;95302.00;10297535;28;98427;-73
2021/12/28 15:50:51;;;;;;;2.22;0.98;;;;;;;7.67;87.01;95318.53;10294206;28;97019;-73
2021/12/28 15:55:55;;;;;;;3.22;0.82;;;;;;;7.56;86.76;95317.81;10298111;28;97794;-73
2021/12/28 16:00:58;;;;;;;4.43;1.00;;;;;;;7.53;86.98;95312.91;10294563;28;96778;-73
2021/12/28 16:06:03;;;;;;;4.40;1.08;;;;;;;7.52;86.60;95315.66;10292911;28;96749;-73
2021/12/28 16:11:07;;;;;;;4.20;1.27;;;;;;;7.44;86.94;95328.59;10299345;28;96985;-73
2021/12/28 16:16:10;;;;;;;3.40;1.00;;;;;;;7.39;87.10;95358.44;10295895;28;96917;-73
2021/12/28 16:21:16;;;;;;;2.95;1.17;;;;;;;7.33;86.78;95364.22;10292027;28;96819;-73
2021/12/28 16:26:20;;;;;;;3.22;1.20;;;;;;;7.29;86.84;95364.69;10297541;28;96677;-73
2021/12/28 16:31:24;;;;;;;3.10;1.40;;;;;;;7.28;87.46;95366.44;10295872;28;97053;-73
2021/12/28 16:36:28;;;;;;;3.60;1.02;;;;;;;7.20;86.94;95380.19;10293635;28;96891;-73
2021/12/28 16:41:31;;;;;;;2.15;1.20;;;;;;;7.18;87.45;95387.31;10295544;28;96873;-73
2021/12/28 16:46:35;;;;;;;3.75;1.23;;;;;;;7.12;87.23;95379.31;10295099;28;96917;-73
2021/12/28 16:51:39;;;;;;;4.65;1.30;;;;;;;7.11;87.73;95394.06;10293675;28;96733;-73
2021/12/28 16:56:42;;;;;;;6.00;1.70;;;;;;;7.06;87.71;95385.91;10277348;28;96884;-73
2021/12/28 17:01:46;;;;;;;9.77;3.65;;;;;;;6.99;87.77;95384.88;10294690;28;96787;-73
2021/12/28 17:06:51;;;;;;;;;;;;;;;7.00;88.10;95368.31;10294583;28;96895;-73
2021/12/28 17:11:56;;;;;;;;;;;;;;;6.98;87.46;95401.41;10291833;28;96774;-73
2021/12/28 17:17:01;;;;;;;4.93;2.28;;;;;;;6.88;87.89;95413.59;10295682;28;96758;-73
2021/12/28 17:22:05;;;;;;;3.90;1.80;;;;;;;6.90;87.72;95424.63;10294067;28;96900;-73
2021/12/28 17:27:09;;;;;;;4.37;2.30;;;;;;;6.94;87.79;95438.97;10290340;28;96985;-73
2021/12/28 17:32:11;;;;;;;4.43;1.85;;;;;;;6.98;87.63;95417.78;10288623;28;97311;-73
2021/12/28 17:37:16;;;;;;;3.13;1.70;;;;;;;7.03;87.74;95445.94;10293292;28;96819;-73
2021/12/28 17:42:19;;;;;;;4.63;2.40;;;;;;;7.05;87.80;95443.19;10289782;28;96717;-73
2021/12/28 17:47:22;;;;;;;3.72;1.95;;;;;;;7.03;87.64;95425.97;10294299;28;96688;-73
2021/12/28 17:52:28;;;;;;;4.03;1.90;;;;;;;7.01;87.79;95448.66;10292926;28;97194;-73
2021/12/28 17:57:32;;;;;;;2.97;1.60;;;;;;;6.99;88.44;95447.19;10291795;28;97132;-73
2021/12/28 18:02:44;;;;;;;2.38;1.85;;;;;;;6.99;88.14;95445.41;10275776;28;96919;-73
2021/12/28 18:07:49;;;;;;;4.72;1.95;;;;;;;6.96;88.45;95418.91;10292961;28;97057;-73
2021/12/28 18:12:52;;;;;;;6.15;2.40;;;;;;;6.91;88.55;95418.50;10292676;28;96933;-73
2021/12/28 18:17:57;;;;;;;3.28;1.63;;;;;;;6.82;88.46;95402.81;10289721;28;96840;-73
2021/12/28 18:23:02;;;;;;;1.92;1.20;;;;;;;6.66;88.95;95423.41;10294813;28;96809;-73
2021/12/28 18:28:05;;;;;;;2.80;1.10;;;;;;;6.60;89.42;95449.91;10297276;28;96871;-73
2021/12/28 18:33:14;;;;;;;1.92;1.00;;;;;;;6.57;88.90;95450.19;10294429;28;97197;-73
2021/12/28 18:38:22;;;;;;;1.63;0.82;;;;;;;6.43;88.99;95418.59;10294879;28;96760;-73
2021/12/28 18:43:26;;;;;;;1.75;0.90;;;;;;;6.32;88.88;95430.91;10298857;28;96985;-73
2021/12/28 18:48:29;;;;;;;2.80;0.90;;;;;;;6.26;89.24;95437.47;10297705;28;96963;-73
2021/12/28 18:53:33;;;;;;;2.03;0.90;;;;;;;6.19;89.37;95446.75;10299027;28;97799;-73
2021/12/28 18:58:37;;;;;;;1.63;0.73;;;;;;;6.12;88.97;95437.91;10298671;28;96797;-73
2021/12/28 19:03:40;;;;;;;2.28;0.80;;;;;;;6.13;89.26;95424.00;10297830;28;96826;-73
2021/12/28 19:08:44;;;;;;;0.93;0.60;;;;;;;6.13;88.78;95418.81;10280700;28;97095;-73
2021/12/28 19:13:47;;;;;;;0.60;0.43;;;;;;;6.12;88.59;95415.41;10300207;28;96858;-73
2021/12/28 19:18:50;;;;;;;2.08;0.73;;;;;;;6.07;88.67;95449.53;10298180;28;96971;-73
2021/12/28 19:23:54;;;;;;;1.80;0.70;;;;;;;6.11;88.56;95423.31;10294317;28;96821;-73
2021/12/28 19:28:59;;;;;;;1.98;0.70;;;;;;;6.02;88.63;95405.03;10299534;28;96846;-73
2021/12/28 19:34:02;;;;;;;2.22;0.82;;;;;;;5.95;88.55;95414.34;10296916;28;96724;-73
2021/12/28 19:39:07;;;;;;;1.98;1.20;;;;;;;5.77;88.52;95359.78;10292784;28;96834;-73
2021/12/28 19:44:10;;;;;;;3.08;1.58;;;;;;;5.85;88.33;95377.25;10296163;28;96944;-73
2021/12/28 19:49:14;;;;;;;1.40;0.90;;;;;;;5.97;88.56;95409.84;10297292;28;96732;-73
2021/12/28 19:54:19;;;;;;;1.13;0.60;;;;;;;6.20;88.19;95423.28;10293680;28;96806;-73
2021/12/28 19:59:23;;;;;;;1.10;0.60;;;;;;;6.36;87.94;95421.88;10299268;28;96925;-73
2021/12/28 20:04:26;;;;;;;0.65;0.40;;;;;;;6.48;87.51;95423.31;10295706;28;99875;-73
2021/12/28 20:09:30;;;;;;;1.92;0.70;;;;;;;6.57;87.45;95419.06;10294218;28;96917;-73
2021/12/28 20:14:33;;;;;;;1.30;0.70;;;;;;;6.45;87.48;95471.13;10295767;28;96876;-73
2021/12/28 20:19:36;;;;;;;0.30;0.20;;;;;;;6.25;88.11;95469.56;10295923;28;98880;-73
2021/12/28 20:24:41;;;;;;;0.95;0.30;;;;;;;6.06;88.30;95463.44;10295251;28;96773;-73
2021/12/28 20:29:45;;;;;;;0.85;0.68;;;;;;;5.90;88.64;95479.56;10278864;28;96963;-73
2021/12/28 20:34:48;;;;;;;1.33;1.10;;;;;;;5.81;88.86;95469.19;10297727;28;97093;-73
2021/12/28 20:39:52;;;;;;;1.55;1.08;;;;;;;5.72;88.68;95497.56;10294703;28;97865;-73
2021/12/28 20:44:55;;;;;;;1.70;1.20;;;;;;;5.64;88.63;95494.84;10292754;28;96708;-73
2021/12/28 20:49:58;;;;;;;1.38;0.80;;;;;;;5.57;88.92;95487.75;10296486;28;96774;-73
2021/12/28 20:55:03;;;;;;;1.45;0.50;;;;;;;5.49;88.99;95527.28;10294421;28;96827;-73
2021/12/28 21:00:10;;;;;;;0.50;0.40;;;;;;;5.48;89.11;95523.06;10290681;28;96840;-73
2021/12/28 21:05:14;;;;;;;1.08;0.45;;;;;;;5.50;88.92;95526.34;10288429;28;96868;-73
2021/12/28 21:10:20;;;;;;;0.28;0.28;;;;;;;5.53;89.02;95536.41;10293872;28;96814;-73
2021/12/28 21:15:24;;;;;;;1.40;0.30;;;;;;;5.52;89.05;95545.16;10291785;28;99736;-72
2021/12/28 21:20:33;;;;;;;1.30;0.40;;;;;;;5.52;89.09;95558.91;10295414;28;97552;-73
2021/12/28 21:25:37;;;;;;;0.20;0.20;;;;;;;5.49;89.06;95563.53;10293568;28;96806;-73
2021/12/28 21:30:40;;;;;;;0.30;0.30;;;;;;;5.46;89.18;95553.44;10294244;28;97071;-72
2021/12/28 21:35:43;;;;;;;0.45;0.35;;;;;;;5.48;89.20;95559.31;10276063;28;96744;-73
2021/12/28 21:40:48;;;;;;;0.75;0.50;;;;;;;5.46;89.25;95537.91;10293939;28;96850;-73
2021/12/28 21:45:51;;;;;;;0.90;0.45;;;;;;;5.48;89.40;95528.25;10293104;28;97011;-73
2021/12/28 21:50:55;;;;;;;0.70;0.30;;;;;;;5.47;89.72;95555.09;10290809;28;96752;-73
2021/12/28 21:55:59;;;;;;;0.45;0.30;;;;;;;5.38;89.76;95550.72;10293967;28;96825;-72
2021/12/28 22:01:03;;;;;;;1.60;0.40;;;;;;;5.29;90.01;95583.41;10292192;28;97139;-73
2021/12/28 22:06:09;;;;;;;0.30;0.20;;;;;;;5.23;90.03;95581.31;10288426;28;96868;-73
2021/12/28 22:11:13;;;;;;;;;;;;;;;5.17;90.34;95577.50;10288553;28;96880;-72
2021/12/28 22:16:16;;;;;;;0.47;0.35;;;;;;;5.13;90.08;95579.53;10292393;28;96742;-73
2021/12/28 22:21:21;;;;;;;0.50;0.40;;;;;;;5.12;90.06;95588.22;10289349;28;97071;-73
2021/12/28 22:26:26;;;;;;;0.32;0.32;;;;;;;5.09;89.95;95577.31;10293878;28;96840;-72
2021/12/28 22:31:30;;;;;;;0.63;0.50;;;;;;;5.15;89.99;95569.03;10293209;28;96961;-72
2021/12/28 22:36:32;;;;;;;0.73;0.60;;;;;;;5.21;89.58;95560.75;10290495;28;97001;-72
2021/12/28 22:41:37;;;;;;;1.05;0.60;;;;;;;5.22;89.62;95549.44;10291992;28;96786;-73
2021/12/28 22:46:40;;;;;;;0.80;0.70;;;;;;;5.17;89.26;95564.53;10289715;28;96859;-73
2021/12/28 22:51:43;;;;;;;0.70;0.60;;;;;;;5.21;89.79;95560.75;10291595;28;97157;-72
2021/12/28 22:56:47;;;;;;;1.33;0.70;;;;;;;5.23;89.46;95584.72;10290323;28;96961;-73
2021/12/28 23:01:50;;;;;;;1.02;0.70;;;;;;;5.24;89.34;95554.50;10292684;28;96878;-73
2021/12/28 23:06:53;;;;;;;0.93;0.70;;;;;;;5.25;89.19;95536.22;10290784;28;96983;-73
2021/12/28 23:11:57;;;;;;;0.80;0.50;;;;;;;5.27;88.99;95529.16;10290419;28;96889;-73
2021/12/28 23:17:05;;;;;;;0.57;0.30;;;;;;;5.27;88.89;95554.19;10300956;28;96973;-73
2021/12/28 23:22:08;;;;;;;1.83;0.57;;;;;;;5.26;88.89;95548.22;10297954;28;96911;-73
2021/12/28 23:27:12;;;;;;;3.08;0.60;;;;;;;5.33;88.83;95569.22;10293732;28;96935;-73
2021/12/28 23:32:15;;;;;;;0.68;0.40;;;;;;;5.37;88.88;95557.63;10299975;28;96826;-73
2021/12/28 23:37:18;;;;;;;0.47;0.20;;;;;;;5.39;88.85;95552.34;10295924;28;96740;-73
2021/12/28 23:42:22;;;;;;;0.95;0.30;;;;;;;5.42;88.86;95580.56;10294098;28;97009;-73
2021/12/28 23:47:25;;;;;;;1.23;0.55;;;;;;;5.38;89.16;95571.44;10297947;28;96872;-73
2021/12/28 23:52:28;;;;;;;0.63;0.43;;;;;;;5.33;89.25;95585.59;10296657;28;97907;-73
2021/12/28 23:57:32;;;;;;;0.10;0.10;;;;;;;5.40;89.19;95626.50;10295356;28;97437;-73
